Time;durP1;ratioP1;P1;durP2;ratioP2;P2;SDS_P1;SDS_P2;PMS_P1;PMS_P2;Temp;Humidity;BMP_temperature;BMP_pressure;BME280_temperature;BME280_humidity;BME280_pressure;Samples;Min_cycle;Max_cycle;Signal;HPM_P1;HPM_P2
2023/01/18 00:00:39;;;;;;;24.52;17.15;;;;;;;-3.41;100.00;66411.00;5040755;28;20059;-84
2023/01/18 00:03:15;;;;;;;27.75;19.77;;;;;;;-3.40;100.00;66409.53;5043676;28;20045;-84
2023/01/18 00:05:41;;;;;;;24.70;19.35;;;;;;;-3.39;100.00;66408.06;5033209;28;20051;-85
2023/01/18 00:08:09;;;;;;;24.60;19.30;;;;;;;-3.36;100.00;66414.03;5026096;28;20029;-85
2023/01/18 00:10:35;;;;;;;26.17;18.95;;;;;;;-3.33;100.00;66414.78;5033611;28;20068;-84
2023/01/18 00:13:00;;;;;;;25.98;19.08;;;;;;;-3.34;100.00;66413.66;5027722;28;20038;-84
2023/01/18 00:15:25;;;;;;;29.13;19.65;;;;;;;-3.41;100.00;66408.41;5023398;28;20086;-84
2023/01/18 00:17:51;;;;;;;27.42;18.75;;;;;;;-3.45;100.00;66403.94;5039462;28;20029;-84
2023/01/18 00:20:18;;;;;;;27.70;19.20;;;;;;;-3.49;100.00;66405.19;5028309;28;20052;-84
2023/01/18 00:22:44;;;;;;;26.02;17.70;;;;;;;-3.47;100.00;66404.28;5041673;28;20055;-84
2023/01/18 00:25:12;;;;;;;27.75;19.42;;;;;;;-3.53;100.00;66394.97;5027131;28;20520;-84
2023/01/18 00:27:45;;;;;;;23.45;17.60;;;;;;;-3.58;100.00;66392.50;5032474;28;20041;-84
2023/01/18 00:30:11;;;;;;;22.83;17.25;;;;;;;-3.61;100.00;66389.16;5027966;28;20056;-85
2023/01/18 00:32:37;;;;;;;31.30;20.95;;;;;;;-3.52;100.00;66396.06;5018125;28;20045;-84
2023/01/18 00:35:06;;;;;;;32.58;22.23;;;;;;;-3.53;100.00;66392.38;5028802;28;20503;-85
2023/01/18 00:37:34;;;;;;;;;;;;;;;-3.57;100.00;66387.88;5035265;28;20044;-85
2023/01/18 00:40:00;;;;;;;59.90;36.20;;;;;;;-3.76;100.00;66369.75;5029452;28;21353;-85
2023/01/18 00:45:09;;;;;;;48.58;29.85;;;;;;;-3.67;100.00;66379.84;5026018;28;20068;-84
2023/01/18 00:47:35;;;;;;;49.53;27.33;;;;;;;-3.69;100.00;66375.53;5030119;28;20489;-85
2023/01/18 00:50:00;;;;;;;42.28;25.73;;;;;;;-3.64;100.00;66385.78;5015124;28;20060;-84
2023/01/18 00:52:26;;;;;;;35.60;22.33;;;;;;;-3.60;100.00;66389.72;5029689;28;20041;-85
2023/01/18 00:54:51;;;;;;;35.70;24.80;;;;;;;-3.55;100.00;66390.69;5029188;28;20049;-84
2023/01/18 00:57:17;;;;;;;36.47;24.35;;;;;;;-3.57;100.00;66391.03;5026606;28;20117;-85
2023/01/18 00:59:42;;;;;;;34.10;23.05;;;;;;;-3.59;100.00;66386.19;5024524;28;20049;-85
2023/01/18 01:02:08;;;;;;;34.08;21.50;;;;;;;-3.52;100.00;66399.25;5029471;28;20140;-85
2023/01/18 01:07:20;;;;;;;27.88;20.23;;;;;;;-3.51;100.00;66400.38;5022163;28;20107;-85
2023/01/18 01:09:45;;;;;;;27.33;19.45;;;;;;;-3.48;100.00;66408.94;5005365;28;20049;-86
2023/01/18 01:26:09;;;;;;;29.55;21.65;;;;;;;-3.51;100.00;66397.19;5030651;28;20132;-87
2023/01/18 01:28:48;;;;;;;27.58;19.52;;;;;;;-3.48;100.00;66401.13;5027281;28;20196;-87
2023/01/18 01:31:15;;;;;;;;;;;;;;;-3.40;100.00;66412.69;5035353;28;20041;-86
2023/01/18 01:33:41;;;;;;;27.92;21.17;;;;;;;-3.42;100.00;66407.28;5034258;28;20405;-86
2023/01/18 01:36:12;;;;;;;27.02;20.35;;;;;;;-3.51;100.00;66395.16;5024723;28;20134;-86
2023/01/18 01:38:40;;;;;;;30.83;21.10;;;;;;;-3.40;100.00;66409.53;5028858;28;20052;-85
2023/01/18 01:41:08;;;;;;;42.55;25.63;;;;;;;-3.41;100.00;66411.56;5027856;28;20087;-86
2023/01/18 01:43:37;;;;;;;40.17;25.13;;;;;;;-3.34;100.00;66416.25;5028313;28;20805;-86
2023/01/18 01:46:13;;;;;;;35.33;23.77;;;;;;;-3.35;100.00;66411.97;5027716;28;20504;-86
2023/01/18 01:48:42;;;;;;;27.88;20.55;;;;;;;-3.40;100.00;66412.13;5030918;28;20046;-86
2023/01/18 01:51:07;;;;;;;28.08;21.13;;;;;;;-3.45;100.00;66404.50;5032401;28;20560;-86
2023/01/18 01:53:32;;;;;;;27.42;19.80;;;;;;;-3.43;100.00;66404.13;5037179;28;20049;-87
2023/01/18 01:56:03;;;;;;;28.55;20.83;;;;;;;-3.43;100.00;66408.75;5029802;28;20169;-86
2023/01/18 01:58:30;;;;;;;25.55;18.25;;;;;;;-3.42;100.00;66407.84;5042119;28;20509;-87
2023/01/18 02:00:56;;;;;;;27.55;19.05;;;;;;;-3.40;100.00;66407.47;5037762;28;20041;-87
2023/01/18 02:03:24;;;;;;;24.00;17.75;;;;;;;-3.45;100.00;66401.88;5033409;28;20106;-86
2023/01/18 02:05:56;;;;;;;23.90;17.77;;;;;;;-3.43;100.00;66408.75;5028665;28;20037;-86
2023/01/18 02:08:21;;;;;;;27.00;20.90;;;;;;;-3.34;100.00;66415.69;5031830;28;20045;-86
2023/01/18 02:10:51;;;;;;;28.65;19.42;;;;;;;-3.30;100.00;66418.13;5032648;28;20050;-86
2023/01/18 02:13:18;;;;;;;25.63;18.50;;;;;;;-3.34;100.00;66420.88;5042525;28;20037;-86
2023/01/18 02:15:54;;;;;;;26.25;18.95;;;;;;;-3.31;100.00;66419.06;5031056;28;20040;-86
2023/01/18 02:19:01;;;;;;;28.08;19.90;;;;;;;-3.41;100.00;66411.00;5024961;28;20049;-86
2023/01/18 02:21:35;;;;;;;27.88;18.30;;;;;;;-3.55;100.00;66395.31;5022514;28;20049;-86
2023/01/18 02:24:38;;;;;;;25.75;18.85;;;;;;;-3.46;100.00;66400.75;5024968;28;20048;-86
2023/01/18 02:27:24;;;;;;;26.50;19.77;;;;;;;-3.52;100.00;66396.06;5029159;28;20037;-85
2023/01/18 02:30:24;;;;;;;28.83;19.65;;;;;;;-3.72;100.00;66376.81;5030955;28;20037;-83
2023/01/18 02:33:02;;;;;;;29.70;19.95;;;;;;;-3.72;100.00;66372.19;5018958;28;20049;-84
2023/01/18 02:35:55;;;;;;;23.90;16.30;;;;;;;-3.83;100.00;66362.47;5021159;28;20060;-84
2023/01/18 02:38:23;;;;;;;29.17;21.10;;;;;;;;;;5036589;28;20128;-85
2023/01/18 02:41:09;;;;;;;30.80;20.73;;;;;;;-3.93;100.00;66351.81;5041608;28;20052;-85
2023/01/18 02:46:39;;;;;;;28.30;20.67;;;;;;;-3.91;100.00;66359.28;5029124;28;20115;-85
2023/01/18 02:49:10;;;;;;;24.80;18.73;;;;;;;-3.95;100.00;66349.56;5028013;28;20385;-84
2023/01/18 02:51:36;;;;;;;26.50;18.83;;;;;;;-4.01;100.00;66345.47;5028114;28;20045;-85
2023/01/18 02:54:06;;;;;;;28.48;21.20;;;;;;;-3.94;100.00;66350.72;5032551;28;20086;-85
2023/01/18 02:56:41;;;;;;;24.25;18.85;;;;;;;-4.06;100.00;66334.66;5034498;28;20037;-85
2023/01/18 02:59:28;;;;;;;28.90;21.17;;;;;;;-4.06;100.00;66339.28;5029056;28;20038;-86
2023/01/18 03:02:03;;;;;;;31.40;21.15;;;;;;;-4.00;100.00;66344.00;5021856;28;20102;-86
2023/01/18 03:05:02;;;;;;;28.00;18.88;;;;;;;-4.03;100.00;66340.06;4980062;28;20615;-86
2023/01/18 03:07:26;;;;;;;26.80;20.58;;;;;;;-4.09;100.00;66337.06;5015235;28;20060;-86
2023/01/18 03:09:53;;;;;;;30.58;20.95;;;;;;;-4.02;100.00;66344.34;5024704;28;20052;-86
2023/01/18 03:12:49;;;;;;;28.58;20.10;;;;;;;-3.97;100.00;66346.78;5031059;28;20053;-86
2023/01/18 03:15:37;;;;;;;28.60;19.75;;;;;;;-4.09;100.00;66333.91;5046417;28;20033;-86
2023/01/18 03:18:21;;;;;;;30.13;21.45;;;;;;;-4.06;100.00;66337.25;5043526;28;20048;-86
2023/01/18 03:20:54;;;;;;;29.60;19.15;;;;;;;-4.25;100.00;66313.38;5026083;28;20045;-86
2023/01/18 03:26:14;;;;;;;27.80;20.83;;;;;;;-4.27;100.00;66311.16;5038874;28;20079;-86
2023/01/18 03:35:02;;;;;;;32.72;22.77;;;;;;;-4.30;100.00;66308.34;5033265;28;20057;-85
2023/01/18 03:37:37;;;;;;;30.75;22.15;;;;;;;-4.27;100.00;66316.34;5030686;28;20461;-86
2023/01/18 03:40:12;;;;;;;30.92;22.00;;;;;;;-4.31;100.00;66307.22;5013360;28;20046;-86
2023/01/18 03:42:49;;;;;;;34.15;21.98;;;;;;;-4.22;100.00;66321.94;5008638;28;20513;-85
2023/01/18 03:45:36;;;;;;;27.80;20.10;;;;;;;-4.28;100.00;66315.22;5026095;28;20141;-85
2023/01/18 03:48:05;;;;;;;31.20;22.38;;;;;;;-4.32;100.00;66311.28;5020827;28;20717;-85
2023/01/18 03:50:51;;;;;;;29.48;21.92;;;;;;;-4.30;100.00;66308.34;5014242;28;20073;-85
2023/01/18 03:54:09;;;;;;;30.67;21.73;;;;;;;-4.35;100.00;66305.34;5010549;28;20033;-85
2023/01/18 03:56:48;;;;;;;31.25;21.88;;;;;;;-4.37;100.00;66305.72;4998900;28;20040;-85
2023/01/18 03:59:14;;;;;;;28.70;22.85;;;;;;;-4.45;100.00;66294.16;5038484;28;20500;-86
2023/01/18 04:01:40;;;;;;;30.60;22.00;;;;;;;-4.49;100.00;66287.06;5034555;28;20047;-85
2023/01/18 04:04:05;;;;;;;31.67;23.75;;;;;;;-4.34;100.00;66309.63;5028549;28;20045;-85
2023/01/18 04:06:34;;;;;;;31.17;23.20;;;;;;;-4.34;100.00;66307.03;5027516;28;20115;-84
2023/01/18 04:08:59;;;;;;;29.70;20.92;;;;;;;-4.47;100.00;66292.47;5031952;28;20053;-85
2023/01/18 04:11:25;;;;;;;27.75;19.77;;;;;;;-4.48;100.00;66293.94;5026226;28;20045;-86
2023/01/18 04:13:50;;;;;;;27.80;20.15;;;;;;;-4.43;100.00;66299.56;5030371;28;20077;-84
2023/01/18 04:16:15;;;;;;;34.45;23.70;;;;;;;-4.42;100.00;66302.69;5028885;28;20042;-85
2023/01/18 04:18:41;;;;;;;31.33;21.73;;;;;;;;;;5037105;28;20041;-84
2023/01/18 04:21:06;;;;;;;33.08;21.60;;;;;;;-4.50;100.00;66293.75;5036342;28;20065;-85
2023/01/18 04:23:32;;;;;;;31.58;22.48;;;;;;;-4.53;100.00;66285.75;5031271;28;20041;-86
2023/01/18 04:26:00;;;;;;;30.50;23.35;;;;;;;-4.62;100.00;66278.84;5034490;28;20095;-87
2023/01/18 04:28:26;;;;;;;29.02;21.67;;;;;;;;;;5021916;28;21091;-86
2023/01/18 04:30:52;;;;;;;27.77;21.55;;;;;;;-4.61;100.00;66285.13;5030263;28;20536;-87
2023/01/18 04:33:19;;;;;;;32.38;23.75;;;;;;;-4.60;100.00;66275.31;5029936;28;20269;-87
2023/01/18 04:35:53;;;;;;;33.33;24.35;;;;;;;-4.54;100.00;66282.03;5031019;28;20045;-87
2023/01/18 04:38:21;;;;;;;32.20;23.52;;;;;;;;;;5029980;28;20041;-86
2023/01/18 04:40:49;;;;;;;31.60;22.13;;;;;;;-4.47;100.00;66289.31;5032703;28;20497;-86
2023/01/18 04:43:15;;;;;;;32.45;23.95;;;;;;;-4.48;100.00;66293.94;5030262;28;20319;-86
2023/01/18 04:45:41;;;;;;;33.60;23.42;;;;;;;-4.52;100.00;66289.47;5031721;28;20048;-86
2023/01/18 04:48:06;;;;;;;32.83;22.85;;;;;;;-4.53;100.00;66288.34;5026070;28;20061;-86
2023/01/18 04:50:37;;;;;;;32.88;22.67;;;;;;;-4.60;100.00;66278.47;5033620;28;20414;-86
2023/01/18 04:53:03;;;;;;;36.17;23.67;;;;;;;-4.60;100.00;66278.47;5035278;28;20538;-85
2023/01/18 04:55:28;;;;;;;32.88;24.50;;;;;;;-4.62;100.00;66273.06;5037179;28;20070;-87
2023/01/18 04:57:58;;;;;;;34.17;24.30;;;;;;;-4.55;100.00;66284.06;5030157;28;20068;-87
2023/01/18 05:00:23;;;;;;;34.75;25.90;;;;;;;-4.54;100.00;66282.59;5024121;28;20041;-85
2023/01/18 05:02:49;;;;;;;38.03;25.90;;;;;;;-4.54;100.00;66287.22;5026140;28;20459;-84
2023/01/18 05:05:15;;;;;;;38.22;25.85;;;;;;;-4.52;100.00;66286.84;5021625;28;20076;-84
2023/01/18 05:07:40;;;;;;;36.78;26.23;;;;;;;-4.48;100.00;66290.78;5040355;28;20064;-83
2023/01/18 05:10:05;;;;;;;35.15;24.98;;;;;;;;;;5041323;28;20045;-83
2023/01/18 05:12:31;;;;;;;35.45;25.90;;;;;;;-4.38;100.00;66299.94;5032431;28;20049;-83
2023/01/18 05:14:56;;;;;;;39.30;27.00;;;;;;;-4.31;100.00;66312.44;5025849;28;20389;-84
2023/01/18 05:17:26;;;;;;;36.83;25.58;;;;;;;-4.20;100.00;66322.16;5029183;28;20045;-84
2023/01/18 05:19:53;;;;;;;35.50;24.52;;;;;;;-4.24;100.00;66317.09;5032199;28;20508;-84
2023/01/18 05:22:19;;;;;;;35.97;26.58;;;;;;;-4.33;100.00;66310.75;5030040;28;20120;-85
2023/01/18 05:24:45;;;;;;;35.53;26.42;;;;;;;-4.34;100.00;66309.63;5031872;28;20045;-85
2023/01/18 05:27:12;;;;;;;35.25;25.30;;;;;;;-4.40;100.00;66300.31;5030801;28;20103;-85
2023/01/18 05:29:37;;;;;;;39.08;28.48;;;;;;;-4.46;100.00;66293.59;5032827;28;20055;-83
2023/01/18 05:32:05;;;;;;;35.17;25.60;;;;;;;-4.39;100.00;66304.03;5025737;28;20076;-84
2023/01/18 05:34:30;;;;;;;39.03;27.33;;;;;;;-4.39;100.00;66300.88;5031012;28;20049;-84
2023/01/18 05:36:56;;;;;;;38.08;24.77;;;;;;;-4.46;100.00;66293.59;5028707;28;20385;-84
2023/01/18 05:39:21;;;;;;;39.47;27.85;;;;;;;-4.38;100.00;66304.56;5033101;28;20685;-85
2023/01/18 05:42:04;;;;;;;37.03;26.77;;;;;;;-4.43;100.00;66296.38;5035694;28;20445;-85
2023/01/18 05:44:29;;;;;;;39.45;28.02;;;;;;;-4.32;100.00;66306.09;5014246;28;20040;-85
2023/01/18 05:47:07;;;;;;;42.78;28.30;;;;;;;-4.20;100.00;66313.78;4997581;28;20149;-85
2023/01/18 05:49:32;;;;;;;41.47;28.52;;;;;;;-4.07;100.00;66336.13;4981295;28;20051;-85
2023/01/18 05:52:21;;;;;;;38.42;26.73;;;;;;;-4.03;100.00;66340.63;4984974;28;20053;-85
2023/01/18 05:54:47;;;;;;;37.13;26.27;;;;;;;-4.05;100.00;66337.84;4965332;28;20430;-85
2023/01/18 05:57:12;;;;;;;38.15;28.05;;;;;;;-4.03;100.00;66337.47;4968034;28;20058;-86
2023/01/18 06:00:25;;;;;;;35.88;26.08;;;;;;;;;;4971272;28;20875;-85
2023/01/18 06:02:25;;;;;;;36.67;27.00;;;;;;;-4.17;100.00;66324.94;4966818;28;20090;-85
2023/01/18 06:04:56;;;;;;;38.25;27.15;;;;;;;-4.20;100.00;66324.16;4961745;28;20075;-86
2023/01/18 06:07:22;;;;;;;34.00;25.45;;;;;;;-4.23;100.00;66320.81;4942327;28;20067;-85
2023/01/18 06:09:47;;;;;;;39.85;27.75;;;;;;;-4.19;100.00;66320.09;4967718;28;20077;-86
2023/01/18 06:12:12;;;;;;;39.80;27.50;;;;;;;-4.17;100.00;66322.34;4994809;28;20042;-85
2023/01/18 06:14:38;;;;;;;44.67;29.17;;;;;;;-4.08;100.00;66332.44;5019138;28;20073;-85
2023/01/18 06:17:09;;;;;;;36.55;27.15;;;;;;;-4.02;100.00;66341.75;5012397;28;20056;-86
2023/01/18 06:19:35;;;;;;;34.92;23.88;;;;;;;-4.11;100.00;66334.25;5017517;28;20037;-86
2023/01/18 06:22:00;;;;;;;38.78;28.25;;;;;;;-4.20;100.00;66324.75;5039255;28;20036;-85
2023/01/18 06:24:26;;;;;;;41.42;28.77;;;;;;;-4.13;100.00;66332.03;5030213;28;20069;-85
2023/01/18 06:26:51;;;;;;;43.45;29.50;;;;;;;-4.10;100.00;66335.94;5029601;28;20440;-85
2023/01/18 06:29:16;;;;;;;43.75;30.42;;;;;;;-4.10;100.00;66330.75;5029398;28;20042;-85
2023/01/18 06:31:42;;;;;;;42.97;29.63;;;;;;;-4.03;100.00;66337.47;5032313;28;20133;-85
2023/01/18 06:34:08;;;;;;;41.63;30.35;;;;;;;-3.87;100.00;66358.53;5035243;28;20051;-85
2023/01/18 06:36:41;;;;;;;41.28;30.23;;;;;;;-3.75;100.00;66373.47;5037470;28;20037;-85
2023/01/18 06:39:06;;;;;;;41.40;29.33;;;;;;;-3.73;100.00;66373.66;5030147;28;20065;-85
2023/01/18 06:41:31;;;;;;;43.72;33.30;;;;;;;-3.76;100.00;66369.75;5033689;28;20068;-85
2023/01/18 06:43:59;;;;;;;42.70;31.25;;;;;;;-3.70;100.00;66379.06;5036991;28;20041;-85
2023/01/18 06:46:25;;;;;;;44.63;33.33;;;;;;;-3.64;100.00;66381.16;5034734;28;20243;-85
2023/01/18 06:48:56;;;;;;;41.58;29.77;;;;;;;-3.84;100.00;66366.53;5035781;28;20124;-85
2023/01/18 06:51:22;;;;;;;43.65;28.55;;;;;;;-3.92;100.00;66350.34;5038470;28;20049;-85
2023/01/18 06:53:48;;;;;;;39.70;27.60;;;;;;;-3.99;100.00;66344.56;5031915;28;20038;-85
2023/01/18 06:56:14;;;;;;;39.53;27.13;;;;;;;;;;5023147;28;20038;-85
2023/01/18 06:58:39;;;;;;;41.75;29.50;;;;;;;-4.05;100.00;66335.22;5020360;28;20049;-87
2023/01/18 07:01:05;;;;;;;42.22;29.10;;;;;;;-3.97;100.00;66346.78;5029702;28;20087;-86
2023/01/18 07:03:31;;;;;;;41.45;28.52;;;;;;;-3.93;100.00;66354.41;5045393;28;20042;-85
2023/01/18 07:05:59;;;;;;;39.55;27.73;;;;;;;-3.90;100.00;66362.44;5036253;28;20378;-86
2023/01/18 07:08:29;;;;;;;48.38;29.58;;;;;;;-3.89;100.00;66353.69;5033788;28;20076;-86
2023/01/18 07:10:56;;;;;;;45.17;28.13;;;;;;;-3.87;100.00;66360.59;5032821;28;20053;-85
2023/01/18 07:13:22;;;;;;;40.95;30.45;;;;;;;-3.77;100.00;66366.03;5034067;28;20037;-86
2023/01/18 07:15:58;;;;;;;46.78;29.63;;;;;;;-3.60;100.00;66389.72;5030445;28;20041;-87
2023/01/18 07:18:24;;;;;;;39.20;26.63;;;;;;;-3.57;100.00;66393.63;5032364;28;20076;-86
2023/01/18 07:21:09;;;;;;;42.58;27.92;;;;;;;-3.54;100.00;66394.41;5029126;28;20037;-86
2023/01/18 07:23:36;;;;;;;43.92;28.33;;;;;;;-3.56;100.00;66389.56;5025769;28;20038;-87
2023/01/18 07:26:06;;;;;;;44.33;30.20;;;;;;;;;;5028345;28;20030;-86
2023/01/18 07:28:33;;;;;;;46.65;29.02;;;;;;;-3.59;100.00;66388.25;5030012;28;20053;-85
2023/01/18 07:30:59;;;;;;;44.30;30.45;;;;;;;-3.53;100.00;66394.97;5030073;28;20574;-85
2023/01/18 07:33:25;;;;;;;37.92;26.30;;;;;;;-3.44;100.00;66408.22;5030840;28;20041;-86
2023/01/18 07:35:52;;;;;;;39.05;26.55;;;;;;;-3.39;100.00;66408.06;5034819;28;20056;-85
2023/01/18 07:38:18;;;;;;;38.85;27.80;;;;;;;-3.38;100.00;66411.78;5035768;28;20041;-86
2023/01/18 07:40:45;;;;;;;40.22;26.80;;;;;;;-3.40;100.00;66410.09;5037297;28;20038;-85
2023/01/18 07:43:11;;;;;;;40.30;27.30;;;;;;;-3.45;100.00;66404.50;5029390;28;20087;-85
2023/01/18 07:45:36;;;;;;;38.05;28.20;;;;;;;-3.41;100.00;66408.97;5034459;28;20049;-85
2023/01/18 07:48:02;;;;;;;39.03;28.38;;;;;;;-3.45;100.00;66401.34;5032088;28;20420;-85
2023/01/18 07:50:28;;;;;;;42.90;29.73;;;;;;;-3.52;100.00;66399.25;5030550;28;20512;-85
2023/01/18 07:52:54;;;;;;;39.65;27.63;;;;;;;-3.38;100.00;66414.38;5027095;28;20549;-85
2023/01/18 07:55:20;;;;;;;44.20;29.63;;;;;;;-3.34;100.00;66415.69;5034143;28;20045;-85
2023/01/18 07:57:46;;;;;;;42.85;29.65;;;;;;;-3.34;100.00;66416.25;5032161;28;20044;-84
2023/01/18 08:00:13;;;;;;;39.75;28.02;;;;;;;-3.32;100.00;66415.34;5034586;28;20041;-85
2023/01/18 08:02:39;;;;;;;36.72;28.23;;;;;;;-3.30;100.00;66423.34;5035548;28;20076;-84
2023/01/18 08:05:05;;;;;;;36.08;26.00;;;;;;;-3.26;100.00;66427.25;5028129;28;20061;-84
2023/01/18 08:07:31;;;;;;;39.22;28.80;;;;;;;-3.21;100.00;66427.66;5036275;28;20037;-85
2023/01/18 08:09:57;;;;;;;38.20;28.20;;;;;;;-3.16;100.00;66428.06;5029049;28;20042;-84
2023/01/18 08:12:22;;;;;;;39.42;26.08;;;;;;;-3.08;100.00;66444.28;5035822;28;20382;-85
2023/01/18 08:14:48;;;;;;;37.47;26.15;;;;;;;-3.01;100.00;66452.69;5030898;28;20068;-85
2023/01/18 08:17:13;;;;;;;34.72;25.80;;;;;;;-3.00;100.00;66453.81;5036929;28;20037;-86
2023/01/18 08:19:38;;;;;;;35.95;26.17;;;;;;;-2.97;100.00;66457.16;5029884;28;20323;-86
2023/01/18 08:22:04;;;;;;;35.60;26.75;;;;;;;-2.93;100.00;66461.09;5028529;28;20041;-85
2023/01/18 08:24:29;;;;;;;36.35;29.10;;;;;;;-2.89;100.00;66470.22;5028424;28;20095;-86
2023/01/18 08:26:55;;;;;;;34.22;25.02;;;;;;;-2.84;100.00;66471.19;5028906;28;20476;-86
2023/01/18 08:29:20;;;;;;;35.80;26.55;;;;;;;-2.79;100.00;66473.63;5033524;28;20073;-86
2023/01/18 08:31:51;;;;;;;38.38;28.75;;;;;;;-2.71;100.00;66482.59;5029470;28;20184;-86
2023/01/18 08:34:16;;;;;;;39.13;28.45;;;;;;;-2.67;100.00;66489.16;5022210;28;20053;-85
2023/01/18 08:36:42;;;;;;;36.63;30.30;;;;;;;-2.57;100.00;66498.31;5030494;28;20049;-87
2023/01/18 08:39:07;;;;;;;36.95;27.05;;;;;;;-2.50;100.00;66506.16;5052702;28;20046;-85
2023/01/18 08:41:36;;;;;;;35.95;25.42;;;;;;;-2.42;100.00;66514.00;5037713;28;20104;-86
2023/01/18 08:44:01;;;;;;;37.33;27.95;;;;;;;-2.35;100.00;66527.63;5026646;28;20412;-85
2023/01/18 08:46:27;;;;;;;34.25;25.40;;;;;;;-2.29;100.00;66531.19;5030987;28;20049;-86
2023/01/18 08:48:55;;;;;;;29.23;22.50;;;;;;;-2.24;100.00;66533.63;5032715;28;20544;-86
2023/01/18 08:51:21;;;;;;;33.80;23.70;;;;;;;-2.20;100.00;66538.69;5035789;28;20416;-86
2023/01/18 08:53:52;;;;;;;27.10;19.10;;;;;;;-2.17;100.00;66546.72;5033137;28;20106;-85
2023/01/18 08:56:17;;;;;;;32.58;23.70;;;;;;;;;;5021180;28;20048;-85
2023/01/18 08:58:43;;;;;;;29.52;21.08;;;;;;;-2.14;100.00;66548.03;5030041;28;20460;-86
2023/01/18 09:01:08;;;;;;;27.60;19.88;;;;;;;;;;5025085;28;20045;-87
2023/01/18 09:03:35;;;;;;;30.35;22.05;;;;;;;-2.07;100.00;66552.72;5034265;28;20707;-85
2023/01/18 09:06:02;;;;;;;29.85;22.67;;;;;;;-2.02;100.00;66560.38;5026500;28;20049;-85
2023/01/18 09:08:28;;;;;;;31.70;23.90;;;;;;;-1.96;100.00;66569.72;5027055;28;20136;-84
2023/01/18 09:10:54;;;;;;;29.75;22.67;;;;;;;-1.86;100.00;66581.50;5031697;28;20567;-85
2023/01/18 09:13:19;;;;;;;26.30;21.23;;;;;;;-1.80;100.00;66582.47;5031917;28;20404;-85
2023/01/18 09:15:47;;;;;;;24.17;19.60;;;;;;;-1.70;100.00;66596.28;5031463;28;20041;-85
2023/01/18 09:18:13;;;;;;;30.27;17.40;;;;;;;-1.64;100.00;66603.03;5025588;28;20332;-85
2023/01/18 09:20:38;;;;;;;28.73;22.52;;;;;;;;;;5031101;28;20128;-85
2023/01/18 09:23:08;;;;;;;25.15;18.83;;;;;;;-1.42;100.00;66624.00;5033137;28;20107;-85
2023/01/18 09:25:35;;;;;;;24.73;17.73;;;;;;;-1.34;100.00;66632.97;5032158;28;20405;-85
2023/01/18 09:28:01;;;;;;;24.63;19.27;;;;;;;;;;5031715;28;20045;-85
2023/01/18 09:30:27;;;;;;;25.38;19.48;;;;;;;;;;5024745;28;20103;-85
2023/01/18 09:32:53;;;;;;;24.13;18.60;;;;;;;-1.17;100.00;66651.50;5029971;28;20053;-85
2023/01/18 09:35:18;;;;;;;21.65;13.85;;;;;;;-1.09;100.00;66660.50;5023705;28;20033;-85
2023/01/18 09:37:44;;;;;;;23.65;16.30;;;;;;;-0.98;100.00;66672.28;5030928;28;20037;-85
2023/01/18 09:40:18;;;;;;;25.63;17.02;;;;;;;-0.90;100.00;66683.88;5034885;28;20057;-85
2023/01/18 09:42:44;;;;;;;24.77;17.63;;;;;;;;;;5028024;28;20056;-84
2023/01/18 09:45:28;;;;;;;16.17;9.32;;;;;;;-0.80;100.00;66697.19;5033507;28;20082;-85
2023/01/18 09:48:00;;;;;;;20.42;13.00;;;;;;;-0.75;100.00;66698.13;5030443;28;20532;-85
2023/01/18 09:50:26;;;;;;;22.88;12.52;;;;;;;-0.71;100.00;66702.63;5034667;28;20595;-85
2023/01/18 09:52:57;;;;;;;20.10;13.93;;;;;;;;;;5033533;28;20127;-85
2023/01/18 09:55:39;;;;;;;19.30;14.00;;;;;;;-0.57;100.00;66717.78;5032208;28;20049;-86
2023/01/18 09:58:07;;;;;;;22.42;15.82;;;;;;;;;;5022777;28;20121;-86
2023/01/18 10:00:38;;;;;;;27.20;17.77;;;;;;;-0.48;100.00;66729.97;5034537;28;20045;-86
2023/01/18 10:03:10;;;;;;;19.23;10.23;;;;;;;-0.46;100.00;66732.78;5027358;28;20072;-86
2023/01/18 10:05:40;;;;;;;21.65;14.88;;;;;;;-0.37;100.00;66744.38;5031783;28;20033;-85
2023/01/18 10:08:10;;;;;;;18.20;14.18;;;;;;;;;;5031930;28;20037;-86
2023/01/18 10:10:38;;;;;;;16.90;12.82;;;;;;;-0.18;100.00;66759.94;5029172;28;20069;-85
2023/01/18 10:13:26;;;;;;;18.90;12.85;;;;;;;-0.08;100.00;66771.75;5029441;28;20154;-85
2023/01/18 10:15:52;;;;;;;19.00;14.83;;;;;;;0.00;100.00;66780.19;5028182;28;20044;-86
2023/01/18 10:18:18;;;;;;;18.40;13.50;;;;;;;0.10;100.00;66791.41;5026728;28;20042;-85
2023/01/18 10:20:49;;;;;;;13.95;10.75;;;;;;;0.14;100.00;66798.53;5035735;28;20129;-85
2023/01/18 10:23:35;;;;;;;20.35;14.38;;;;;;;;;;5037988;28;20099;-85
2023/01/18 10:26:27;;;;;;;16.70;12.10;;;;;;;0.28;100.00;66813.16;5034491;28;20042;-85
2023/01/18 10:29:11;;;;;;;18.27;12.02;;;;;;;0.37;100.00;66821.22;4996475;28;20045;-85
2023/01/18 10:31:48;;;;;;;19.58;10.55;;;;;;;0.38;100.00;66822.34;5030339;28;20187;-85
2023/01/18 10:34:20;;;;;;;19.00;13.23;;;;;;;0.43;100.00;66830.59;5026806;28;20071;-85
2023/01/18 10:36:49;;;;;;;15.82;9.77;;;;;;;0.44;100.00;66829.09;5027460;28;20644;-85
2023/01/18 10:39:26;;;;;;;15.77;11.00;;;;;;;0.50;100.00;66837.34;5025538;28;20045;-86
2023/01/18 10:41:55;;;;;;;20.45;12.93;;;;;;;0.50;100.00;66835.28;5027391;28;20068;-86
2023/01/18 10:44:22;;;;;;;14.93;9.55;;;;;;;0.55;100.00;66840.34;5034050;28;20495;-85
2023/01/18 10:46:48;;;;;;;16.85;10.63;;;;;;;0.56;100.00;66842.03;5033064;28;20033;-85
2023/01/18 10:49:37;;;;;;;16.52;11.20;;;;;;;0.67;100.00;66854.41;5020889;28;20106;-85
2023/01/18 10:52:27;;;;;;;13.80;9.98;;;;;;;0.71;100.00;66849.94;5027195;28;20088;-84
2023/01/18 10:54:56;;;;;;;12.48;8.90;;;;;;;0.74;100.00;66861.16;5027367;28;20045;-85
2023/01/18 10:57:21;;;;;;;;;;;;;;;;;;5031449;28;20166;-84
2023/01/18 10:59:51;;;;;;;15.07;10.07;;;;;;;0.83;100.00;66874.47;5037408;28;19913;-84
2023/01/18 11:02:23;;;;;;;14.30;10.00;;;;;;;0.94;100.00;66886.28;5024265;28;20375;-84
2023/01/18 11:04:55;;;;;;;15.05;10.25;;;;;;;1.08;100.00;66894.16;5023411;28;20045;-84
2023/01/18 11:07:24;;;;;;;17.83;10.32;;;;;;;;;;5022017;28;20102;-84
2023/01/18 11:09:58;;;;;;;12.80;8.38;;;;;;;1.26;100.00;66918.56;5028638;28;20087;-84
2023/01/18 11:12:35;;;;;;;12.90;8.50;;;;;;;1.31;100.00;66924.19;5032087;28;20099;-84
2023/01/18 11:15:21;;;;;;;13.88;9.95;;;;;;;;;;5028119;28;20109;-84
2023/01/18 11:17:54;;;;;;;14.98;9.50;;;;;;;1.39;100.00;66933.19;5011878;28;20071;-84
2023/01/18 11:20:34;;;;;;;12.00;9.30;;;;;;;1.51;100.00;66946.69;5023531;28;20034;-84
2023/01/18 11:23:02;;;;;;;12.52;7.93;;;;;;;1.60;100.00;66960.94;5028214;28;20048;-84
2023/01/18 11:25:36;;;;;;;11.65;8.65;;;;;;;;;;5028793;28;20050;-84
2023/01/18 11:28:02;;;;;;;13.77;8.57;;;;;;;;;;5025153;28;20043;-84
2023/01/18 11:30:27;;;;;;;12.48;9.23;;;;;;;;;;5023086;28;20053;-85
2023/01/18 11:32:53;;;;;;;13.18;7.93;;;;;;;1.64;100.00;66962.81;5033269;28;21292;-84
2023/01/18 11:35:27;;;;;;;15.80;9.52;;;;;;;;;;5025792;28;20057;-84
2023/01/18 11:37:56;;;;;;;12.45;9.82;;;;;;;;;;5030098;28;20045;-84
2023/01/18 11:40:26;;;;;;;12.70;8.07;;;;;;;;;;5033458;28;20040;-84
2023/01/18 11:43:02;;;;;;;13.88;9.45;;;;;;;1.73;100.00;66970.34;5037655;28;20037;-84
2023/01/18 11:45:34;;;;;;;14.85;9.80;;;;;;;1.78;100.00;66971.31;5035481;28;20041;-84
2023/01/18 11:48:29;;;;;;;15.48;9.93;;;;;;;1.89;100.00;66987.81;5032462;28;20389;-84
2023/01/18 11:51:16;;;;;;;11.45;7.03;;;;;;;;;;5023677;28;20065;-85
2023/01/18 11:54:07;;;;;;;15.73;10.68;;;;;;;1.96;100.00;66991.00;5028790;28;20082;-84
2023/01/18 11:56:45;;;;;;;12.85;10.07;;;;;;;2.02;100.00;67002.44;5029482;28;20049;-84
2023/01/18 11:59:26;;;;;;;12.90;9.40;;;;;;;2.10;100.00;67010.88;5034852;28;20041;-85
2023/01/18 12:02:26;;;;;;;16.23;10.27;;;;;;;2.23;100.00;67025.53;5035955;28;20046;-84
2023/01/18 12:05:03;;;;;;;15.23;9.13;;;;;;;;;;5025362;28;20076;-84
2023/01/18 12:07:31;;;;;;;13.20;7.88;;;;;;;;;;5012030;28;20688;-84
2023/01/18 12:10:00;;;;;;;12.67;9.17;;;;;;;2.48;100.00;67053.72;5019223;28;20057;-84
2023/01/18 12:12:25;;;;;;;12.80;8.65;;;;;;;2.56;100.00;67061.59;5022734;28;20041;-85
2023/01/18 12:15:21;;;;;;;12.98;7.97;;;;;;;2.69;100.00;67071.00;5016204;28;20116;-84